Time;durP1;ratioP1;P1;durP2;ratioP2;P2;SDS_P1;SDS_P2;PMS_P1;PMS_P2;Temp;Humidity;BMP_temperature;BMP_pressure;BME280_temperature;BME280_humidity;BME280_pressure;Samples;Min_cycle;Max_cycle;Signal;HPM_P1;HPM_P2
2022/11/26 00:00:58;;;;;;;131.60;121.03;;;;;;;;;;10251424;28;20045;-63
2022/11/26 00:05:56;;;;;;;133.32;123.43;;;;;;;;;;10248813;28;20124;-63
2022/11/26 00:10:52;;;;;;;135.68;125.38;;;;;;;;;;10245589;28;20132;-64
2022/11/26 00:15:49;;;;;;;137.82;127.53;;;;;;;;;;10253613;28;20503;-63
2022/11/26 00:20:49;;;;;;;139.00;128.80;;;;;;;;;;10246079;28;20128;-64
2022/11/26 00:25:50;;;;;;;137.35;126.78;;;;;;;;;;10250531;28;20522;-63
2022/11/26 00:30:46;;;;;;;128.57;118.72;;;;;;;;;;10246351;28;20064;-63
2022/11/26 00:35:42;;;;;;;138.13;127.28;;;;;;;;;;10249879;28;20045;-63
2022/11/26 00:40:39;;;;;;;137.30;126.95;;;;;;;;;;10272020;28;20056;-63
2022/11/26 00:45:35;;;;;;;139.95;129.85;;;;;;;;;;10248427;28;20399;-63
2022/11/26 00:50:35;;;;;;;142.40;131.52;;;;;;;;;;10256101;28;20047;-63
2022/11/26 00:55:42;;;;;;;146.15;135.57;;;;;;;;;;10242673;28;20052;-63
2022/11/26 01:00:38;;;;;;;146.65;135.38;;;;;;;;;;10247752;28;20044;-63
2022/11/26 01:05:36;;;;;;;136.63;126.65;;;;;;;;;;10240059;28;20042;-63
2022/11/26 01:10:32;;;;;;;133.27;123.22;;;;;;;;;;10249304;28;20108;-63
2022/11/26 01:15:28;;;;;;;135.48;125.30;;;;;;;;;;10248003;28;20045;-63
2022/11/26 01:20:24;;;;;;;136.10;125.68;;;;;;;;;;10240554;28;20410;-63
2022/11/26 01:25:21;;;;;;;136.93;126.28;;;;;;;;;;10246994;28;20421;-64
2022/11/26 01:30:25;;;;;;;137.45;126.38;;;;;;;;;;10230450;28;20064;-63
2022/11/26 01:35:21;;;;;;;133.50;123.20;;;;;;;;;;10238090;28;20508;-63
2022/11/26 01:40:17;;;;;;;136.73;126.35;;;;;;;;;;10252949;28;20414;-64
2022/11/26 01:45:18;;;;;;;137.90;127.88;;;;;;;;;;10249178;28;20049;-64
2022/11/26 01:50:27;;;;;;;140.00;129.95;;;;;;;;;;10253962;28;20041;-64
2022/11/26 01:55:23;;;;;;;145.70;135.05;;;;;;;;;;10241249;28;20069;-64
2022/11/26 02:00:19;;;;;;;144.40;133.27;;;;;;;;;;10242634;28;20478;-63
2022/11/26 02:05:16;;;;;;;141.60;131.30;;;;;;;;;;10242122;28;20132;-64
2022/11/26 02:10:12;;;;;;;146.32;135.98;;;;;;;;;;10237266;28;20073;-64
2022/11/26 02:15:09;;;;;;;148.23;136.00;;;;;;;;;;10241045;28;20049;-64
2022/11/26 02:20:15;;;;;;;143.32;131.80;;;;;;;;;;10242407;28;20079;-63
2022/11/26 02:25:29;;;;;;;146.98;135.35;;;;;;;;;;10249477;28;20048;-64
2022/11/26 02:30:27;;;;;;;147.73;135.05;;;;;;;;;;10252203;28;20041;-64
2022/11/26 02:35:33;;;;;;;140.73;129.10;;;;;;;;;;10247489;28;20046;-64
2022/11/26 02:40:29;;;;;;;143.95;131.40;;;;;;;;;;10258684;28;20158;-64
2022/11/26 02:45:46;;;;;;;141.13;130.07;;;;;;;;;;10244144;28;20046;-64
2022/11/26 02:50:47;;;;;;;143.48;131.60;;;;;;;;;;10247267;28;20065;-64
2022/11/26 02:55:46;;;;;;;140.60;129.68;;;;;;;;;;10256067;28;20140;-64
2022/11/26 03:00:42;;;;;;;141.02;129.80;;;;;;;;;;10251711;28;20454;-64
2022/11/26 03:05:39;;;;;;;140.70;129.32;;;;;;;;;;10250219;28;20045;-64
2022/11/26 03:10:35;;;;;;;137.77;126.90;;;;;;;;;;10259177;28;20541;-64
2022/11/26 03:15:32;;;;;;;138.88;127.93;;;;;;;;;;10258778;28;20056;-64
2022/11/26 03:20:28;;;;;;;141.43;131.13;;;;;;;;;;10255931;28;20045;-64
2022/11/26 03:25:24;;;;;;;142.60;131.23;;;;;;;;;;10247098;28;20067;-64
2022/11/26 03:30:21;;;;;;;138.50;127.53;;;;;;;;;;10256570;28;20226;-64
2022/11/26 03:35:17;;;;;;;143.73;132.65;;;;;;;;;;10252176;28;20129;-64
2022/11/26 03:40:15;;;;;;;143.25;131.68;;;;;;;;;;10253410;28;20041;-64
2022/11/26 03:45:11;;;;;;;145.90;134.05;;;;;;;;;;10248173;28;20037;-64
2022/11/26 03:50:08;;;;;;;143.18;131.82;;;;;;;;;;10252966;28;20123;-64
2022/11/26 03:55:04;;;;;;;145.32;134.45;;;;;;;;;;10246858;28;20050;-64
2022/11/26 04:00:00;;;;;;;146.48;132.65;;;;;;;;;;10248404;28;20048;-64
2022/11/26 04:04:57;;;;;;;133.35;122.30;;;;;;;;;;10245107;28;20040;-63
2022/11/26 04:09:53;;;;;;;133.48;122.93;;;;;;;;;;10253724;28;20041;-64
2022/11/26 04:14:49;;;;;;;138.88;127.00;;;;;;;;;;10255743;28;20041;-64
2022/11/26 04:19:45;;;;;;;132.88;122.68;;;;;;;;;;10257929;28;20159;-64
2022/11/26 04:24:42;;;;;;;136.40;125.00;;;;;;;;;;10270522;28;20091;-64
2022/11/26 04:29:38;;;;;;;135.10;123.32;;;;;;;;;;10250364;28;20037;-64
2022/11/26 04:34:34;;;;;;;133.00;119.97;;;;;;;;;;10252924;28;20045;-64
2022/11/26 04:39:31;;;;;;;133.20;123.43;;;;;;;;;;10244418;28;20048;-64
2022/11/26 04:44:27;;;;;;;133.23;122.50;;;;;;;;;;10249336;28;20128;-64
2022/11/26 04:49:23;;;;;;;136.30;121.68;;;;;;;;;;10249990;28;20045;-64
2022/11/26 04:54:19;;;;;;;131.27;121.00;;;;;;;;;;10248098;28;20041;-64
2022/11/26 04:59:16;;;;;;;132.45;121.18;;;;;;;;;;10246162;28;20052;-64
2022/11/26 05:04:12;;;;;;;130.20;120.47;;;;;;;;;;10251719;28;20049;-64
2022/11/26 05:09:08;;;;;;;134.73;122.78;;;;;;;;;;10240813;28;20041;-64
2022/11/26 05:14:04;;;;;;;130.50;120.85;;;;;;;;;;10246993;28;20056;-64
2022/11/26 05:19:01;;;;;;;136.82;126.70;;;;;;;;;;10245174;28;20123;-64
2022/11/26 05:23:57;;;;;;;133.75;123.40;;;;;;;;;;10251964;28;20078;-64
2022/11/26 05:28:53;;;;;;;136.75;125.18;;;;;;;;;;10249794;28;20046;-64
2022/11/26 05:33:49;;;;;;;136.45;125.55;;;;;;;;;;10243771;28;20460;-63
2022/11/26 05:38:46;;;;;;;136.68;126.40;;;;;;;;;;10242380;28;20049;-64
2022/11/26 05:43:42;;;;;;;140.60;130.25;;;;;;;;;;10248626;28;20045;-64
2022/11/26 05:48:38;;;;;;;137.80;126.53;;;;;;;;;;10240482;28;20044;-64
2022/11/26 05:53:35;;;;;;;135.23;125.15;;;;;;;;;;10252596;28;20136;-64
2022/11/26 05:58:31;;;;;;;136.05;125.80;;;;;;;;;;10240380;28;20543;-64
2022/11/26 06:03:27;;;;;;;137.63;127.93;;;;;;;;;;10240744;28;20559;-64
2022/11/26 06:08:23;;;;;;;135.93;125.45;;;;;;;;;;10245173;28;20567;-64
2022/11/26 06:13:20;;;;;;;136.25;125.53;;;;;;;;;;10242762;28;20714;-63
2022/11/26 06:18:17;;;;;;;134.25;124.70;;;;;;;;;;10250141;28;20041;-64
2022/11/26 06:23:13;;;;;;;124.53;115.65;;;;;;;;;;10255708;28;20467;-64
2022/11/26 06:28:09;;;;;;;126.45;117.50;;;;;;;;;;10258249;28;20120;-63
2022/11/26 06:33:05;;;;;;;124.22;115.15;;;;;;;;;;10251672;28;20504;-64
2022/11/26 06:38:02;;;;;;;130.88;121.30;;;;;;;;;;10252406;28;20045;-64
2022/11/26 06:42:58;;;;;;;132.80;122.97;;;;;;;;;;10255710;28;20040;-64
2022/11/26 06:47:54;;;;;;;129.57;119.85;;;;;;;;;;10248992;28;20129;-64
2022/11/26 06:52:51;;;;;;;133.77;123.35;;;;;;;;;;10246017;28;20054;-65
2022/11/26 06:57:49;;;;;;;136.88;126.70;;;;;;;;;;10255110;28;20041;-64
2022/11/26 07:02:45;;;;;;;132.52;122.40;;;;;;;;;;10253971;28;20463;-64
2022/11/26 07:07:41;;;;;;;128.35;118.47;;;;;;;;;;10243535;28;20038;-64
2022/11/26 07:12:37;;;;;;;139.38;128.23;;;;;;;;;;10249992;28;20048;-64
2022/11/26 07:17:34;;;;;;;134.32;124.18;;;;;;;;;;10254940;28;20123;-64
2022/11/26 07:22:30;;;;;;;135.77;125.50;;;;;;;;;;10255726;28;20044;-64
2022/11/26 07:27:26;;;;;;;127.80;117.15;;;;;;;;;;10254028;28;20518;-64
2022/11/26 07:32:22;;;;;;;126.72;115.78;;;;;;;;;;10257852;28;20562;-64
2022/11/26 07:37:19;;;;;;;126.85;116.82;;;;;;;;;;10245483;28;20041;-63
2022/11/26 07:42:15;;;;;;;130.45;119.18;;;;;;;;;;10250278;28;20040;-64
2022/11/26 07:47:11;;;;;;;130.20;119.82;;;;;;;;;;10247450;28;20051;-64
2022/11/26 07:52:07;;;;;;;136.13;124.55;;;;;;;;;;10247433;28;20076;-63
2022/11/26 07:57:04;;;;;;;133.38;121.85;;;;;;;;;;10247326;28;20056;-63
2022/11/26 08:02:00;;;;;;;136.88;125.90;;;;;;;;;;10252881;28;20068;-63
2022/11/26 08:06:56;;;;;;;140.93;129.35;;;;;;;;;;10237960;28;20422;-64
2022/11/26 08:11:52;;;;;;;135.88;125.07;;;;;;;;;;10238439;28;20132;-64
2022/11/26 08:16:49;;;;;;;132.13;121.13;;;;;;;;;;10250488;28;20056;-64
2022/11/26 08:21:45;;;;;;;135.07;123.72;;;;;;;;;;10255192;28;20422;-64
2022/11/26 08:26:44;;;;;;;142.60;130.68;;;;;;;;;;10250285;28;20073;-64
2022/11/26 08:31:41;;;;;;;138.80;127.90;;;;;;;;;;10254417;28;20034;-64
2022/11/26 08:36:41;;;;;;;139.73;129.00;;;;;;;;;;10233678;28;20128;-64
2022/11/26 08:41:38;;;;;;;131.60;120.90;;;;;;;;;;10242243;28;20037;-64
2022/11/26 08:46:38;;;;;;;137.35;125.75;;;;;;;;;;10240950;28;20037;-64
2022/11/26 08:51:35;;;;;;;136.32;125.57;;;;;;;;;;10243690;28;20034;-64
2022/11/26 08:56:33;;;;;;;135.15;124.50;;;;;;;;;;10246920;28;20128;-64
2022/11/26 09:01:31;;;;;;;132.18;121.22;;;;;;;;;;10251894;28;20073;-63
2022/11/26 09:06:28;;;;;;;137.02;125.65;;;;;;;;;;10253470;28;20045;-64
2022/11/26 09:11:25;;;;;;;139.10;127.85;;;;;;;;;;10253977;28;20047;-64
2022/11/26 09:16:22;;;;;;;134.38;123.68;;;;;;;;;;10239260;28;20132;-63
2022/11/26 09:21:18;;;;;;;137.23;126.43;;;;;;;;;;10251412;28;20067;-64
2022/11/26 09:26:15;;;;;;;138.18;127.80;;;;;;;;;;10250800;28;20414;-64
2022/11/26 09:31:11;;;;;;;134.23;124.75;;;;;;;;;;10251054;28;20124;-64
2022/11/26 09:36:11;;;;;;;132.00;122.05;;;;;;;;;;10245706;28;20052;-63
2022/11/26 09:41:20;;;;;;;122.45;112.90;;;;;;;;;;10249631;28;20037;-64
2022/11/26 09:46:20;;;;;;;127.85;118.07;;;;;;;;;;10239468;28;20049;-64
2022/11/26 09:51:19;;;;;;;122.95;113.78;;;;;;;;;;10247824;28;20443;-64
2022/11/26 09:56:21;;;;;;;118.85;109.47;;;;;;;;;;10245913;28;20040;-64
2022/11/26 10:01:19;;;;;;;112.57;104.85;;;;;;;;;;10248201;28;20065;-64
2022/11/26 10:06:18;;;;;;;111.30;103.70;;;;;;;;;;10239981;28;20053;-64
2022/11/26 10:11:15;;;;;;;107.00;99.03;;;;;;;;;;10247765;28;20132;-64
2022/11/26 10:16:17;;;;;;;107.97;100.40;;;;;;;;;;10248011;28;20163;-64
2022/11/26 10:21:13;;;;;;;99.47;92.47;;;;;;;;;;10257177;28;20049;-64
2022/11/26 10:26:18;;;;;;;92.07;84.97;;;;;;;;;;10247922;28;20052;-64
2022/11/26 10:31:18;;;;;;;87.65;81.47;;;;;;;;;;10250481;28;20057;-64
2022/11/26 10:36:20;;;;;;;85.38;78.53;;;;;;;;;;10247220;28;20133;-64
2022/11/26 10:41:17;;;;;;;82.35;76.03;;;;;;;;;;10241292;28;20120;-63
2022/11/26 10:46:30;;;;;;;85.78;78.93;;;;;;;;;;10242647;28;20053;-64
2022/11/26 10:51:31;;;;;;;;;;;;;;;;;;10247618;28;20099;-64
2022/11/26 10:56:35;;;;;;;89.32;82.07;;;;;;;;;;10237171;28;20366;-64
2022/11/26 11:01:34;;;;;;;87.40;81.07;;;;;;;;;;10240931;28;20515;-64
2022/11/26 11:06:36;;;;;;;90.88;83.65;;;;;;;;;;10249955;28;20052;-63
2022/11/26 11:11:32;;;;;;;92.50;85.05;;;;;;;;;;10246357;28;20045;-64
2022/11/26 11:16:30;;;;;;;97.80;90.63;;;;;;;;;;10248876;28;20438;-64
2022/11/26 11:21:34;;;;;;;96.53;89.75;;;;;;;;;;10247563;28;20517;-64
2022/11/26 11:26:37;;;;;;;101.03;93.47;;;;;;;;;;10240216;28;20058;-64
2022/11/26 11:31:43;;;;;;;94.88;88.13;;;;;;;;;;10244389;28;20559;-64
2022/11/26 11:36:40;;;;;;;99.38;92.38;;;;;;;;;;10237163;28;20419;-64
2022/11/26 11:41:40;;;;;;;101.38;94.05;;;;;;;;;;10251168;28;20041;-64
2022/11/26 11:46:42;;;;;;;103.07;94.90;;;;;;;;;;10246301;28;20060;-64
2022/11/26 11:51:38;;;;;;;96.00;88.75;;;;;;;;;;10266056;28;20125;-64
2022/11/26 11:56:52;;;;;;;95.93;88.65;;;;;;;;;;10239927;28;20045;-64
2022/11/26 12:02:07;;;;;;;94.88;87.55;;;;;;;;;;10244259;28;20076;-64
2022/11/26 12:07:30;;;;;;;96.47;88.47;;;;;;;;;;10237264;28;20334;-64
2022/11/26 12:12:32;;;;;;;90.77;83.87;;;;;;;;;;10244883;28;20034;-63
2022/11/26 12:17:38;;;;;;;92.97;85.30;;;;;;;;;;10246656;28;20033;-64
2022/11/26 12:22:34;;;;;;;98.75;91.00;;;;;;;;;;10248255;28;20479;-64
2022/11/26 12:27:39;;;;;;;105.40;97.78;;;;;;;;;;10250935;28;20037;-64
2022/11/26 12:32:54;;;;;;;94.95;87.88;;;;;;;;;;10251046;28;20048;-64
2022/11/26 12:37:56;;;;;;;96.47;89.35;;;;;;;;;;10243941;28;20057;-63
2022/11/26 12:42:52;;;;;;;93.63;86.28;;;;;;;;;;10248349;28;20041;-63
2022/11/26 12:47:52;;;;;;;96.72;88.68;;;;;;;;;;10244437;28;20107;-64
2022/11/26 12:53:01;;;;;;;83.05;76.53;;;;;;;;;;10237238;28;20128;-63
2022/11/26 12:58:01;;;;;;;90.20;83.20;;;;;;;;;;10239949;28;20107;-64
2022/11/26 13:02:57;;;;;;;92.75;85.60;;;;;;;;;;10248050;28;20033;-64
2022/11/26 13:08:05;;;;;;;85.65;78.60;;;;;;;;;;10250280;28;20514;-64
2022/11/26 13:13:16;;;;;;;88.35;80.53;;;;;;;;;;10251643;28;20041;-64
2022/11/26 13:18:17;;;;;;;85.25;78.20;;;;;;;;;;10228533;28;20057;-64
2022/11/26 13:23:40;;;;;;;79.15;72.72;;;;;;;;;;10241126;28;20057;-63
2022/11/26 13:29:14;;;;;;;81.57;75.10;;;;;;;;;;10228654;28;20120;-64
2022/11/26 13:34:16;;;;;;;90.22;82.43;;;;;;;;;;10212487;28;20041;-64
2022/11/26 13:39:31;;;;;;;91.82;83.57;;;;;;;;;;10240580;28;20509;-64
2022/11/26 13:44:33;;;;;;;95.70;87.88;;;;;;;;;;10243759;28;20048;-64
2022/11/26 13:49:33;;;;;;;96.45;88.45;;;;;;;;;;10238005;28;20137;-64
2022/11/26 13:54:39;;;;;;;103.85;95.95;;;;;;;;;;10250689;28;20123;-64
2022/11/26 13:59:44;;;;;;;101.75;93.97;;;;;;;;;;10246633;28;20048;-64
2022/11/26 14:04:40;;;;;;;106.90;98.43;;;;;;;;;;10245433;28;20048;-64
2022/11/26 14:09:43;;;;;;;113.50;104.63;;;;;;;;;;10251836;28;20119;-64
2022/11/26 14:14:40;;;;;;;110.05;101.43;;;;;;;;;;10247054;28;20071;-64
2022/11/26 14:19:39;;;;;;;110.95;101.82;;;;;;;;;;10251112;28;20506;-64
2022/11/26 14:24:51;;;;;;;103.03;94.22;;;;;;;;;;10246520;28;20033;-64
2022/11/26 14:29:57;;;;;;;103.47;94.95;;;;;;;;;;10237626;28;20132;-64
2022/11/26 14:34:55;;;;;;;101.45;92.75;;;;;;;;;;10236137;28;20050;-64
2022/11/26 14:39:58;;;;;;;102.68;93.85;;;;;;;;;;10245863;28;20041;-64
2022/11/26 14:45:13;;;;;;;105.85;96.93;;;;;;;;;;10252409;28;20530;-64
2022/11/26 14:50:12;;;;;;;107.75;98.82;;;;;;;;;;10252702;28;20052;-63
2022/11/26 14:55:14;;;;;;;112.10;102.47;;;;;;;;;;10255678;28;20045;-64
2022/11/26 15:00:10;;;;;;;116.20;106.45;;;;;;;;;;10254934;28;20136;-64
2022/11/26 15:05:14;;;;;;;119.30;109.88;;;;;;;;;;10245701;28;20042;-64
2022/11/26 15:10:13;;;;;;;125.90;115.70;;;;;;;;;;10245620;28;20068;-64
2022/11/26 15:15:14;;;;;;;123.57;113.30;;;;;;;;;;10253777;28;20071;-64
2022/11/26 15:20:13;;;;;;;121.45;111.68;;;;;;;;;;10253796;28;20720;-64
2022/11/26 15:25:20;;;;;;;119.53;109.75;;;;;;;;;;10250385;28;20589;-64
2022/11/26 15:30:18;;;;;;;117.35;108.28;;;;;;;;;;10260373;28;20048;-64
2022/11/26 15:35:15;;;;;;;123.85;114.13;;;;;;;;;;10253911;28;20069;-64
2022/11/26 15:40:22;;;;;;;126.32;116.10;;;;;;;;;;10253739;28;20064;-64
2022/11/26 15:45:19;;;;;;;121.30;111.10;;;;;;;;;;10245585;28;20511;-64
2022/11/26 15:50:22;;;;;;;120.97;111.13;;;;;;;;;;10252796;28;20487;-64
2022/11/26 15:55:22;;;;;;;123.47;113.10;;;;;;;;;;10251872;28;20137;-64
2022/11/26 16:00:26;;;;;;;122.55;111.85;;;;;;;;;;10251632;28;20134;-64
2022/11/26 16:05:37;;;;;;;118.40;108.60;;;;;;;;;;10257647;28;20567;-64
2022/11/26 16:10:38;;;;;;;116.25;106.13;;;;;;;;;;10248351;28;20068;-64
2022/11/26 16:15:35;;;;;;;120.47;110.78;;;;;;;;;;10247014;28;20051;-64
2022/11/26 16:20:31;;;;;;;124.15;113.25;;;;;;;;;;10253868;28;20120;-65
2022/11/26 16:25:28;;;;;;;122.18;111.45;;;;;;;;;;10243188;28;20116;-64
2022/11/26 16:30:24;;;;;;;125.43;114.65;;;;;;;;;;10252633;28;20041;-64
2022/11/26 16:35:24;;;;;;;131.30;119.88;;;;;;;;;;10247897;28;21449;-64
2022/11/26 16:40:41;;;;;;;129.45;118.70;;;;;;;;;;10250379;28;20052;-64
2022/11/26 16:45:37;;;;;;;128.65;117.72;;;;;;;;;;10239664;28;20157;-64
2022/11/26 16:50:33;;;;;;;124.50;113.97;;;;;;;;;;10240225;28;20052;-64
2022/11/26 16:55:29;;;;;;;128.48;117.25;;;;;;;;;;10241609;28;20037;-64
2022/11/26 17:00:26;;;;;;;122.90;111.97;;;;;;;;;;10250318;28;20037;-64
2022/11/26 17:05:23;;;;;;;122.72;112.72;;;;;;;;;;10237229;28;20049;-64
2022/11/26 17:10:21;;;;;;;124.97;114.28;;;;;;;;;;10256709;28;20562;-64
2022/11/26 17:15:17;;;;;;;121.75;111.18;;;;;;;;;;10253510;28;20045;-64
2022/11/26 17:20:13;;;;;;;120.78;110.25;;;;;;;;;;10236288;28;20045;-65
2022/11/26 17:25:10;;;;;;;119.65;108.97;;;;;;;;;;10246861;28;20549;-65
2022/11/26 17:30:11;;;;;;;116.65;106.45;;;;;;;;;;10252862;28;20037;-64
2022/11/26 17:35:07;;;;;;;120.88;110.18;;;;;;;;;;10241195;28;20045;-65
2022/11/26 17:40:15;;;;;;;119.40;108.15;;;;;;;;;;10234362;28;20055;-65
2022/11/26 17:45:12;;;;;;;122.45;112.15;;;;;;;;;;10244412;28;20095;-65
2022/11/26 17:50:13;;;;;;;125.45;114.88;;;;;;;;;;10240300;28;20083;-64
2022/11/26 17:55:10;;;;;;;124.00;112.85;;;;;;;;;;10232136;28;20041;-64
2022/11/26 18:00:10;;;;;;;125.38;114.43;;;;;;;;;;10237339;28;20049;-65
2022/11/26 18:05:06;;;;;;;121.07;110.45;;;;;;;;;;10241206;28;20463;-65
2022/11/26 18:10:04;;;;;;;125.25;114.10;;;;;;;;;;10250331;28;20052;-65
2022/11/26 18:15:00;;;;;;;122.60;112.00;;;;;;;;;;10245288;28;20046;-64
2022/11/26 18:19:57;;;;;;;118.07;108.25;;;;;;;;;;10241898;28;20064;-64
2022/11/26 18:24:53;;;;;;;125.90;114.82;;;;;;;;;;10242772;28;20075;-64
2022/11/26 18:29:52;;;;;;;124.68;113.10;;;;;;;;;;10251697;28;20381;-64
2022/11/26 18:34:49;;;;;;;118.53;107.78;;;;;;;;;;10249725;28;20136;-64
2022/11/26 18:39:45;;;;;;;124.85;114.07;;;;;;;;;;10243419;28;20096;-64
2022/11/26 18:44:41;;;;;;;120.22;109.07;;;;;;;;;;10252663;28;20046;-65
2022/11/26 18:49:38;;;;;;;124.95;111.82;;;;;;;;;;10239352;28;20041;-64
2022/11/26 18:54:39;;;;;;;124.85;112.80;;;;;;;;;;10240455;28;20057;-64
2022/11/26 18:59:36;;;;;;;123.25;111.78;;;;;;;;;;10239482;28;20559;-64
2022/11/26 19:04:33;;;;;;;120.68;110.28;;;;;;;;;;10236462;28;20049;-64
2022/11/26 19:09:29;;;;;;;119.47;108.25;;;;;;;;;;10252130;28;20054;-64
2022/11/26 19:14:25;;;;;;;114.25;102.85;;;;;;;;;;10246705;28;20168;-65
2022/11/26 19:19:22;;;;;;;118.45;106.53;;;;;;;;;;10233869;28;20048;-64
2022/11/26 19:24:18;;;;;;;112.38;101.18;;;;;;;;;;10240713;28;20132;-65
2022/11/26 19:29:14;;;;;;;113.35;102.47;;;;;;;;;;10254226;28;20498;-65
2022/11/26 19:34:14;;;;;;;114.32;102.70;;;;;;;;;;10254915;28;20049;-64
2022/11/26 19:39:10;;;;;;;111.20;101.03;;;;;;;;;;10245697;28;20535;-65
2022/11/26 19:44:07;;;;;;;108.53;98.43;;;;;;;;;;10251220;28;20137;-64
2022/11/26 19:49:03;;;;;;;113.03;102.22;;;;;;;;;;10245450;28;20383;-64
2022/11/26 19:53:59;;;;;;;114.82;104.00;;;;;;;;;;10251444;28;20045;-64
2022/11/26 19:59:01;;;;;;;116.53;105.63;;;;;;;;;;10245770;28;20061;-64
2022/11/26 20:03:59;;;;;;;113.07;102.85;;;;;;;;;;10238517;28;20536;-64
2022/11/26 20:08:57;;;;;;;118.13;107.75;;;;;;;;;;10242388;28;20159;-64
2022/11/26 20:13:53;;;;;;;122.15;110.68;;;;;;;;;;10244481;28;20100;-64
2022/11/26 20:18:50;;;;;;;120.55;109.55;;;;;;;;;;10256647;28;20687;-64
2022/11/26 20:23:46;;;;;;;120.07;108.85;;;;;;;;;;10253640;28;20049;-64
2022/11/26 20:28:43;;;;;;;118.82;107.30;;;;;;;;;;10225777;28;20049;-64
2022/11/26 20:33:40;;;;;;;120.68;109.20;;;;;;;;;;10233566;28;20116;-63
2022/11/26 20:38:36;;;;;;;124.20;111.72;;;;;;;;;;10222745;28;20042;-64
2022/11/26 20:43:32;;;;;;;126.07;114.28;;;;;;;;;;10229440;28;20037;-63
2022/11/26 20:48:29;;;;;;;125.47;113.28;;;;;;;;;;10231670;28;20055;-63
2022/11/26 20:53:25;;;;;;;129.77;116.53;;;;;;;;;;10237284;28;20693;-66
2022/11/26 20:58:22;;;;;;;123.72;112.10;;;;;;;;;;10230768;28;20052;-63
2022/11/26 21:03:20;;;;;;;123.57;111.45;;;;;;;;;;10253546;28;20049;-65
2022/11/26 21:08:16;;;;;;;125.32;113.35;;;;;;;;;;10235336;28;20049;-65
2022/11/26 21:13:15;;;;;;;127.97;115.90;;;;;;;;;;10247085;28;20543;-65
2022/11/26 21:18:11;;;;;;;133.35;120.38;;;;;;;;;;10240040;28;20045;-63
2022/11/26 21:23:08;;;;;;;127.70;116.13;;;;;;;;;;10225046;28;20045;-63
2022/11/26 21:28:05;;;;;;;128.85;116.97;;;;;;;;;;10255136;28;20657;-63
2022/11/26 21:33:02;;;;;;;129.48;117.97;;;;;;;;;;10238160;28;20049;-63
2022/11/26 21:38:04;;;;;;;131.27;119.75;;;;;;;;;;10227629;28;20099;-63
2022/11/26 21:43:01;;;;;;;125.18;113.93;;;;;;;;;;10232875;28;20068;-63
2022/11/26 21:47:57;;;;;;;127.35;116.20;;;;;;;;;;10228893;28;20080;-64
2022/11/26 21:52:53;;;;;;;127.00;116.13;;;;;;;;;;10239301;28;20454;-63
2022/11/26 21:57:50;;;;;;;128.88;117.68;;;;;;;;;;10246856;28;20048;-63
2022/11/26 22:02:46;;;;;;;129.75;118.28;;;;;;;;;;10238380;28;20088;-63
2022/11/26 22:07:42;;;;;;;128.68;117.68;;;;;;;;;;10235555;28;20132;-63
2022/11/26 22:12:39;;;;;;;132.93;120.85;;;;;;;;;;10225182;28;20041;-63
2022/11/26 22:17:35;;;;;;;129.32;118.38;;;;;;;;;;10227070;28;20045;-64
2022/11/26 22:22:31;;;;;;;127.88;116.85;;;;;;;;;;10231574;28;20046;-64
2022/11/26 22:27:27;;;;;;;130.40;119.35;;;;;;;;;;10225863;28;20069;-64
2022/11/26 22:32:24;;;;;;;129.65;118.93;;;;;;;;;;10237317;28;20057;-64
2022/11/26 22:37:20;;;;;;;133.35;122.63;;;;;;;;;;10237455;28;20404;-64
2022/11/26 22:42:16;;;;;;;135.32;124.45;;;;;;;;;;10236381;28;20122;-64
2022/11/26 22:47:12;;;;;;;131.60;120.75;;;;;;;;;;10241031;28;20045;-65
2022/11/26 22:52:09;;;;;;;135.43;124.00;;;;;;;;;;10237952;28;20038;-63
2022/11/26 22:57:05;;;;;;;131.13;121.05;;;;;;;;;;10246780;28;20037;-64
2022/11/26 23:02:01;;;;;;;138.10;126.22;;;;;;;;;;10245983;28;20047;-63
2022/11/26 23:06:57;;;;;;;125.75;115.55;;;;;;;;;;10256140;28;20538;-64
2022/11/26 23:11:54;;;;;;;129.13;119.13;;;;;;;;;;10249390;28;20049;-63
2022/11/26 23:16:50;;;;;;;128.35;117.57;;;;;;;;;;10238340;28;20128;-62
2022/11/26 23:21:46;;;;;;;126.63;116.88;;;;;;;;;;10245674;28;20168;-62
2022/11/26 23:26:43;;;;;;;123.72;113.72;;;;;;;;;;10244862;28;20065;-62
2022/11/26 23:31:41;;;;;;;128.43;118.30;;;;;;;;;;10239124;28;20084;-63
2022/11/26 23:36:37;;;;;;;123.88;114.50;;;;;;;;;;10242422;28;20065;-63
2022/11/26 23:41:34;;;;;;;127.57;116.82;;;;;;;;;;10254826;28;20038;-62
2022/11/26 23:46:31;;;;;;;126.20;116.32;;;;;;;;;;10229746;28;20041;-63
2022/11/26 23:51:28;;;;;;;129.70;119.85;;;;;;;;;;10255926;28;20045;-63
2022/11/26 23:56:26;;;;;;;122.70;113.43;;;;;;;;;;10241683;28;20060;-63
